East Moline, Illinois
Current Conditions -  °F | °C
As of 6:59 PM on Friday 24 Oct 2014 (Local Time) from KMLI Reporting Station
Overcast Overcast  
Wind Chill: 66°   Ceiling: 2900
Heat Index: 66°   Visibility: 7mi
Dew Point: 54°   Wind: 9mph
Humidity: 65%   Direction: 280°W
Pressure: 29.94"   Gusts: NA
Location:  41.52°N, 90.44°W
Report Text: KMLI 242359Z 28008KT 7SM OVC029 19/12 A2994 RMK AO2 T01890122
Loading
Personal Weather Stations






























Interactive Weather Map
Tropical Storm Tracking
New forecast layout! Learn more

10-Day Weather Forecast

Advertisements
Track Severe Weather on mobile